sensor_id;sensor_type;location;lat;lon;timestamp;P1;durP1;ratioP1;P2;durP2;ratioP2
23684;SDS011;12020;51.384;6.908;2022-07-10T00:01:34;5.60;;;1.40;;
23684;SDS011;12020;51.384;6.908;2022-07-10T00:04:01;3.90;;;1.58;;
23684;SDS011;12020;51.384;6.908;2022-07-10T00:06:27;3.65;;;1.55;;
23684;SDS011;12020;51.384;6.908;2022-07-10T00:08:55;4.05;;;1.50;;
23684;SDS011;12020;51.384;6.908;2022-07-10T00:11:25;3.53;;;1.27;;
23684;SDS011;12020;51.384;6.908;2022-07-10T00:13:56;5.28;;;1.60;;
23684;SDS011;12020;51.384;6.908;2022-07-10T00:16:21;4.45;;;1.58;;
23684;SDS011;12020;51.384;6.908;2022-07-10T00:18:49;4.97;;;1.40;;
23684;SDS011;12020;51.384;6.908;2022-07-10T00:21:18;5.70;;;1.40;;
23684;SDS011;12020;51.384;6.908;2022-07-10T00:23:46;5.30;;;1.65;;
23684;SDS011;12020;51.384;6.908;2022-07-10T00:26:13;3.75;;;1.40;;
23684;SDS011;12020;51.384;6.908;2022-07-10T00:28:38;4.53;;;1.40;;
23684;SDS011;12020;51.384;6.908;2022-07-10T00:31:06;4.60;;;1.77;;
23684;SDS011;12020;51.384;6.908;2022-07-10T00:33:42;3.90;;;1.57;;
23684;SDS011;12020;51.384;6.908;2022-07-10T00:36:15;3.30;;;1.38;;
23684;SDS011;12020;51.384;6.908;2022-07-10T00:38:41;4.75;;;1.55;;
23684;SDS011;12020;51.384;6.908;2022-07-10T00:41:07;4.28;;;1.70;;
23684;SDS011;12020;51.384;6.908;2022-07-10T00:46:22;4.22;;;1.42;;
23684;SDS011;12020;51.384;6.908;2022-07-10T00:48:49;4.82;;;1.42;;
23684;SDS011;12020;51.384;6.908;2022-07-10T00:51:17;3.77;;;1.33;;
23684;SDS011;12020;51.384;6.908;2022-07-10T00:53:48;5.05;;;1.70;;
23684;SDS011;12020;51.384;6.908;2022-07-10T00:56:18;4.27;;;1.50;;
23684;SDS011;12020;51.384;6.908;2022-07-10T00:58:47;4.30;;;1.50;;
23684;SDS011;12020;51.384;6.908;2022-07-10T01:01:15;3.40;;;1.20;;
23684;SDS011;12020;51.384;6.908;2022-07-10T01:03:41;3.53;;;1.23;;
23684;SDS011;12020;51.384;6.908;2022-07-10T01:06:13;3.00;;;1.33;;
23684;SDS011;12020;51.384;6.908;2022-07-10T01:08:52;4.03;;;1.50;;
23684;SDS011;12020;51.384;6.908;2022-07-10T01:11:23;2.70;;;1.33;;
23684;SDS011;12020;51.384;6.908;2022-07-10T01:13:51;3.92;;;1.25;;
23684;SDS011;12020;51.384;6.908;2022-07-10T01:16:18;3.50;;;1.30;;
23684;SDS011;12020;51.384;6.908;2022-07-10T01:18:45;5.57;;;1.58;;
23684;SDS011;12020;51.384;6.908;2022-07-10T01:23:52;5.43;;;1.27;;
23684;SDS011;12020;51.384;6.908;2022-07-10T01:26:19;3.60;;;1.30;;
23684;SDS011;12020;51.384;6.908;2022-07-10T01:28:49;3.28;;;1.05;;
23684;SDS011;12020;51.384;6.908;2022-07-10T01:31:19;3.65;;;1.30;;
23684;SDS011;12020;51.384;6.908;2022-07-10T01:33:56;3.40;;;1.20;;
23684;SDS011;12020;51.384;6.908;2022-07-10T01:36:22;4.93;;;1.50;;
23684;SDS011;12020;51.384;6.908;2022-07-10T01:38:51;4.40;;;1.50;;
23684;SDS011;12020;51.384;6.908;2022-07-10T01:41:19;5.38;;;1.30;;
23684;SDS011;12020;51.384;6.908;2022-07-10T01:43:45;3.83;;;1.23;;
23684;SDS011;12020;51.384;6.908;2022-07-10T01:46:11;4.53;;;1.48;;
23684;SDS011;12020;51.384;6.908;2022-07-10T01:48:38;5.10;;;1.30;;
23684;SDS011;12020;51.384;6.908;2022-07-10T01:51:05;4.65;;;1.40;;
23684;SDS011;12020;51.384;6.908;2022-07-10T01:53:35;4.88;;;1.45;;
23684;SDS011;12020;51.384;6.908;2022-07-10T01:56:11;4.90;;;1.42;;
23684;SDS011;12020;51.384;6.908;2022-07-10T01:58:41;4.20;;;1.50;;
23684;SDS011;12020;51.384;6.908;2022-07-10T02:01:08;5.10;;;1.50;;
23684;SDS011;12020;51.384;6.908;2022-07-10T02:03:35;5.30;;;1.50;;
23684;SDS011;12020;51.384;6.908;2022-07-10T02:06:22;3.90;;;1.50;;
23684;SDS011;12020;51.384;6.908;2022-07-10T02:08:48;4.55;;;1.38;;
23684;SDS011;12020;51.384;6.908;2022-07-10T02:11:15;3.50;;;1.10;;
23684;SDS011;12020;51.384;6.908;2022-07-10T02:13:41;4.50;;;1.60;;
23684;SDS011;12020;51.384;6.908;2022-07-10T02:16:08;4.87;;;1.80;;
23684;SDS011;12020;51.384;6.908;2022-07-10T02:18:42;5.65;;;1.60;;
23684;SDS011;12020;51.384;6.908;2022-07-10T02:21:08;4.95;;;1.33;;
23684;SDS011;12020;51.384;6.908;2022-07-10T02:23:34;4.50;;;1.40;;
23684;SDS011;12020;51.384;6.908;2022-07-10T02:28:30;4.18;;;1.40;;
23684;SDS011;12020;51.384;6.908;2022-07-10T02:30:57;3.95;;;1.30;;
23684;SDS011;12020;51.384;6.908;2022-07-10T02:33:23;4.80;;;1.63;;
23684;SDS011;12020;51.384;6.908;2022-07-10T02:35:49;4.80;;;1.50;;
23684;SDS011;12020;51.384;6.908;2022-07-10T02:38:17;3.97;;;1.25;;
23684;SDS011;12020;51.384;6.908;2022-07-10T02:40:45;3.33;;;1.30;;
23684;SDS011;12020;51.384;6.908;2022-07-10T02:43:15;4.15;;;1.50;;
23684;SDS011;12020;51.384;6.908;2022-07-10T02:45:42;4.50;;;1.52;;
23684;SDS011;12020;51.384;6.908;2022-07-10T02:48:08;3.90;;;1.52;;
23684;SDS011;12020;51.384;6.908;2022-07-10T02:50:33;5.27;;;1.70;;
23684;SDS011;12020;51.384;6.908;2022-07-10T02:53:01;4.85;;;1.20;;
23684;SDS011;12020;51.384;6.908;2022-07-10T02:55:28;4.90;;;1.63;;
23684;SDS011;12020;51.384;6.908;2022-07-10T02:57:57;7.05;;;1.60;;
23684;SDS011;12020;51.384;6.908;2022-07-10T03:00:24;5.30;;;1.73;;
23684;SDS011;12020;51.384;6.908;2022-07-10T03:02:51;3.58;;;1.33;;
23684;SDS011;12020;51.384;6.908;2022-07-10T03:05:20;5.80;;;1.70;;
23684;SDS011;12020;51.384;6.908;2022-07-10T03:07:46;5.43;;;1.50;;
23684;SDS011;12020;51.384;6.908;2022-07-10T03:10:12;5.47;;;1.95;;
23684;SDS011;12020;51.384;6.908;2022-07-10T03:12:39;6.25;;;1.60;;
23684;SDS011;12020;51.384;6.908;2022-07-10T03:15:05;4.70;;;1.33;;
23684;SDS011;12020;51.384;6.908;2022-07-10T03:17:34;4.13;;;1.50;;
23684;SDS011;12020;51.384;6.908;2022-07-10T03:20:01;5.47;;;1.43;;
23684;SDS011;12020;51.384;6.908;2022-07-10T03:22:27;4.32;;;1.40;;
23684;SDS011;12020;51.384;6.908;2022-07-10T03:24:55;4.50;;;1.33;;
23684;SDS011;12020;51.384;6.908;2022-07-10T03:27:20;4.15;;;1.55;;
23684;SDS011;12020;51.384;6.908;2022-07-10T03:29:48;4.63;;;1.48;;
23684;SDS011;12020;51.384;6.908;2022-07-10T03:32:15;3.92;;;1.35;;
23684;SDS011;12020;51.384;6.908;2022-07-10T03:34:49;4.63;;;1.45;;
23684;SDS011;12020;51.384;6.908;2022-07-10T03:37:15;4.87;;;1.37;;
23684;SDS011;12020;51.384;6.908;2022-07-10T03:39:47;4.32;;;1.38;;
23684;SDS011;12020;51.384;6.908;2022-07-10T03:42:17;4.07;;;1.60;;
23684;SDS011;12020;51.384;6.908;2022-07-10T03:44:43;4.15;;;1.30;;
23684;SDS011;12020;51.384;6.908;2022-07-10T03:47:10;4.65;;;1.50;;
23684;SDS011;12020;51.384;6.908;2022-07-10T03:49:36;6.63;;;1.75;;
23684;SDS011;12020;51.384;6.908;2022-07-10T03:52:04;4.55;;;1.40;;
23684;SDS011;12020;51.384;6.908;2022-07-10T03:54:34;4.50;;;1.48;;
23684;SDS011;12020;51.384;6.908;2022-07-10T03:57:00;4.57;;;1.48;;
23684;SDS011;12020;51.384;6.908;2022-07-10T03:59:44;4.70;;;1.40;;
23684;SDS011;12020;51.384;6.908;2022-07-10T04:02:10;3.85;;;1.60;;
23684;SDS011;12020;51.384;6.908;2022-07-10T04:04:37;4.87;;;1.60;;
23684;SDS011;12020;51.384;6.908;2022-07-10T04:07:07;4.93;;;1.60;;
23684;SDS011;12020;51.384;6.908;2022-07-10T04:09:36;3.35;;;1.40;;
23684;SDS011;12020;51.384;6.908;2022-07-10T04:12:02;4.22;;;1.58;;
23684;SDS011;12020;51.384;6.908;2022-07-10T04:14:30;4.75;;;1.60;;
23684;SDS011;12020;51.384;6.908;2022-07-10T04:17:05;4.97;;;1.67;;
23684;SDS011;12020;51.384;6.908;2022-07-10T04:19:38;4.30;;;1.70;;
23684;SDS011;12020;51.384;6.908;2022-07-10T04:22:04;5.50;;;1.90;;
23684;SDS011;12020;51.384;6.908;2022-07-10T04:24:30;5.53;;;1.80;;
23684;SDS011;12020;51.384;6.908;2022-07-10T04:26:57;5.40;;;1.67;;
23684;SDS011;12020;51.384;6.908;2022-07-10T04:29:23;4.47;;;1.77;;
23684;SDS011;12020;51.384;6.908;2022-07-10T04:31:49;4.05;;;1.70;;
23684;SDS011;12020;51.384;6.908;2022-07-10T04:34:19;4.40;;;1.90;;
23684;SDS011;12020;51.384;6.908;2022-07-10T04:36:46;4.60;;;2.20;;
23684;SDS011;12020;51.384;6.908;2022-07-10T04:39:12;3.92;;;1.95;;
23684;SDS011;12020;51.384;6.908;2022-07-10T04:41:39;4.80;;;1.70;;
23684;SDS011;12020;51.384;6.908;2022-07-10T04:44:05;4.25;;;1.90;;
23684;SDS011;12020;51.384;6.908;2022-07-10T04:46:31;3.85;;;1.98;;
23684;SDS011;12020;51.384;6.908;2022-07-10T04:48:58;5.30;;;2.20;;
23684;SDS011;12020;51.384;6.908;2022-07-10T04:51:26;4.35;;;1.92;;
23684;SDS011;12020;51.384;6.908;2022-07-10T04:53:54;5.18;;;2.10;;
23684;SDS011;12020;51.384;6.908;2022-07-10T04:56:20;4.97;;;2.08;;
23684;SDS011;12020;51.384;6.908;2022-07-10T04:58:47;5.55;;;1.95;;
23684;SDS011;12020;51.384;6.908;2022-07-10T05:03:44;7.00;;;2.17;;
23684;SDS011;12020;51.384;6.908;2022-07-10T05:06:19;5.95;;;2.10;;
23684;SDS011;12020;51.384;6.908;2022-07-10T05:08:46;5.05;;;2.20;;
23684;SDS011;12020;51.384;6.908;2022-07-10T05:11:11;5.90;;;2.43;;
23684;SDS011;12020;51.384;6.908;2022-07-10T05:13:38;6.10;;;2.17;;
23684;SDS011;12020;51.384;6.908;2022-07-10T05:16:10;5.07;;;2.10;;
23684;SDS011;12020;51.384;6.908;2022-07-10T05:18:39;5.13;;;2.38;;
23684;SDS011;12020;51.384;6.908;2022-07-10T05:21:05;6.75;;;2.40;;
23684;SDS011;12020;51.384;6.908;2022-07-10T05:23:31;6.80;;;2.50;;
23684;SDS011;12020;51.384;6.908;2022-07-10T05:25:58;6.93;;;2.30;;
23684;SDS011;12020;51.384;6.908;2022-07-10T05:28:27;4.05;;;2.13;;
23684;SDS011;12020;51.384;6.908;2022-07-10T05:30:56;7.10;;;2.50;;
23684;SDS011;12020;51.384;6.908;2022-07-10T05:33:21;7.13;;;2.80;;
23684;SDS011;12020;51.384;6.908;2022-07-10T05:35:47;6.37;;;2.77;;
23684;SDS011;12020;51.384;6.908;2022-07-10T05:38:14;5.67;;;2.50;;
23684;SDS011;12020;51.384;6.908;2022-07-10T05:40:40;6.88;;;2.47;;
23684;SDS011;12020;51.384;6.908;2022-07-10T05:45:36;5.90;;;2.30;;
23684;SDS011;12020;51.384;6.908;2022-07-10T05:48:02;5.03;;;2.30;;
23684;SDS011;12020;51.384;6.908;2022-07-10T05:50:31;5.77;;;2.50;;
23684;SDS011;12020;51.384;6.908;2022-07-10T05:52:58;6.75;;;2.38;;
23684;SDS011;12020;51.384;6.908;2022-07-10T05:55:24;9.15;;;2.60;;
23684;SDS011;12020;51.384;6.908;2022-07-10T05:57:51;6.28;;;2.20;;
23684;SDS011;12020;51.384;6.908;2022-07-10T06:00:22;8.23;;;2.28;;
23684;SDS011;12020;51.384;6.908;2022-07-10T06:02:48;6.03;;;1.90;;
23684;SDS011;12020;51.384;6.908;2022-07-10T06:05:14;5.88;;;1.70;;
23684;SDS011;12020;51.384;6.908;2022-07-10T06:07:42;6.60;;;1.90;;
23684;SDS011;12020;51.384;6.908;2022-07-10T06:10:08;4.43;;;1.60;;
23684;SDS011;12020;51.384;6.908;2022-07-10T06:12:35;5.45;;;1.90;;
23684;SDS011;12020;51.384;6.908;2022-07-10T06:15:03;5.53;;;1.60;;
23684;SDS011;12020;51.384;6.908;2022-07-10T06:17:29;4.57;;;1.55;;
23684;SDS011;12020;51.384;6.908;2022-07-10T06:19:57;6.97;;;1.70;;
23684;SDS011;12020;51.384;6.908;2022-07-10T06:22:24;5.18;;;1.65;;
23684;SDS011;12020;51.384;6.908;2022-07-10T06:25:00;4.68;;;1.63;;
23684;SDS011;12020;51.384;6.908;2022-07-10T06:27:31;5.87;;;1.90;;
23684;SDS011;12020;51.384;6.908;2022-07-10T06:30:03;4.45;;;1.50;;
23684;SDS011;12020;51.384;6.908;2022-07-10T06:32:30;5.03;;;1.77;;
23684;SDS011;12020;51.384;6.908;2022-07-10T06:34:58;5.90;;;1.60;;
23684;SDS011;12020;51.384;6.908;2022-07-10T06:37:27;5.72;;;1.75;;
23684;SDS011;12020;51.384;6.908;2022-07-10T06:39:54;6.28;;;1.90;;
23684;SDS011;12020;51.384;6.908;2022-07-10T06:42:21;7.47;;;2.03;;
23684;SDS011;12020;51.384;6.908;2022-07-10T06:44:47;4.70;;;1.77;;
23684;SDS011;12020;51.384;6.908;2022-07-10T06:47:16;4.45;;;2.00;;
23684;SDS011;12020;51.384;6.908;2022-07-10T06:50:05;6.53;;;1.93;;
23684;SDS011;12020;51.384;6.908;2022-07-10T06:52:33;6.35;;;2.10;;
23684;SDS011;12020;51.384;6.908;2022-07-10T06:55:00;5.15;;;1.83;;
23684;SDS011;12020;51.384;6.908;2022-07-10T06:57:27;5.33;;;1.87;;
23684;SDS011;12020;51.384;6.908;2022-07-10T06:59:54;6.05;;;1.90;;
23684;SDS011;12020;51.384;6.908;2022-07-10T07:04:51;5.75;;;1.77;;
23684;SDS011;12020;51.384;6.908;2022-07-10T07:07:17;7.00;;;1.90;;
23684;SDS011;12020;51.384;6.908;2022-07-10T07:09:43;4.25;;;1.77;;
23684;SDS011;12020;51.384;6.908;2022-07-10T07:12:10;5.43;;;1.80;;
23684;SDS011;12020;51.384;6.908;2022-07-10T07:14:38;4.85;;;1.60;;
23684;SDS011;12020;51.384;6.908;2022-07-10T07:17:04;5.63;;;1.60;;
23684;SDS011;12020;51.384;6.908;2022-07-10T07:19:38;5.60;;;1.90;;
23684;SDS011;12020;51.384;6.908;2022-07-10T07:22:23;5.10;;;1.83;;
23684;SDS011;12020;51.384;6.908;2022-07-10T07:25:08;5.32;;;1.90;;
23684;SDS011;12020;51.384;6.908;2022-07-10T07:27:38;5.72;;;1.70;;
23684;SDS011;12020;51.384;6.908;2022-07-10T07:30:07;4.75;;;1.77;;
23684;SDS011;12020;51.384;6.908;2022-07-10T07:32:40;6.00;;;1.57;;
23684;SDS011;12020;51.384;6.908;2022-07-10T07:35:08;5.10;;;1.60;;
23684;SDS011;12020;51.384;6.908;2022-07-10T07:37:42;4.65;;;1.60;;
23684;SDS011;12020;51.384;6.908;2022-07-10T07:40:28;4.82;;;1.58;;
23684;SDS011;12020;51.384;6.908;2022-07-10T07:42:55;5.17;;;1.73;;
23684;SDS011;12020;51.384;6.908;2022-07-10T07:45:26;5.72;;;2.20;;
23684;SDS011;12020;51.384;6.908;2022-07-10T07:47:56;7.63;;;3.25;;
23684;SDS011;12020;51.384;6.908;2022-07-10T07:50:31;5.60;;;1.80;;
23684;SDS011;12020;51.384;6.908;2022-07-10T07:53:02;4.93;;;1.88;;
23684;SDS011;12020;51.384;6.908;2022-07-10T07:55:31;7.07;;;1.90;;
23684;SDS011;12020;51.384;6.908;2022-07-10T07:58:06;7.28;;;2.47;;
23684;SDS011;12020;51.384;6.908;2022-07-10T08:00:33;5.75;;;2.30;;
23684;SDS011;12020;51.384;6.908;2022-07-10T08:02:59;5.88;;;2.05;;
23684;SDS011;12020;51.384;6.908;2022-07-10T08:05:25;6.97;;;2.42;;
23684;SDS011;12020;51.384;6.908;2022-07-10T08:07:55;7.35;;;2.60;;
23684;SDS011;12020;51.384;6.908;2022-07-10T08:10:23;6.22;;;2.25;;
23684;SDS011;12020;51.384;6.908;2022-07-10T08:13:24;7.43;;;2.42;;
23684;SDS011;12020;51.384;6.908;2022-07-10T08:15:51;6.28;;;2.35;;
23684;SDS011;12020;51.384;6.908;2022-07-10T08:21:38;5.93;;;2.28;;
23684;SDS011;12020;51.384;6.908;2022-07-10T08:27:36;6.30;;;2.28;;
23684;SDS011;12020;51.384;6.908;2022-07-10T08:30:04;4.35;;;2.15;;
23684;SDS011;12020;51.384;6.908;2022-07-10T08:32:34;4.00;;;1.90;;
23684;SDS011;12020;51.384;6.908;2022-07-10T08:35:06;3.92;;;1.50;;
23684;SDS011;12020;51.384;6.908;2022-07-10T08:37:42;5.78;;;2.28;;
23684;SDS011;12020;51.384;6.908;2022-07-10T08:40:10;4.72;;;1.90;;
23684;SDS011;12020;51.384;6.908;2022-07-10T08:42:53;3.95;;;1.65;;
23684;SDS011;12020;51.384;6.908;2022-07-10T08:45:30;4.63;;;1.98;;
23684;SDS011;12020;51.384;6.908;2022-07-10T08:48:01;4.60;;;1.90;;
23684;SDS011;12020;51.384;6.908;2022-07-10T08:50:33;6.88;;;2.50;;
23684;SDS011;12020;51.384;6.908;2022-07-10T08:53:12;4.95;;;2.03;;
23684;SDS011;12020;51.384;6.908;2022-07-10T08:55:48;5.50;;;2.92;;
23684;SDS011;12020;51.384;6.908;2022-07-10T09:01:08;6.40;;;3.83;;
23684;SDS011;12020;51.384;6.908;2022-07-10T09:03:44;6.95;;;4.55;;
23684;SDS011;12020;51.384;6.908;2022-07-10T09:06:14;6.32;;;4.28;;
23684;SDS011;12020;51.384;6.908;2022-07-10T09:11:26;4.50;;;3.15;;
23684;SDS011;12020;51.384;6.908;2022-07-10T09:14:04;6.28;;;3.83;;
23684;SDS011;12020;51.384;6.908;2022-07-10T09:16:37;7.25;;;4.95;;
23684;SDS011;12020;51.384;6.908;2022-07-10T09:19:18;7.13;;;5.57;;
23684;SDS011;12020;51.384;6.908;2022-07-10T09:22:07;5.00;;;4.30;;
23684;SDS011;12020;51.384;6.908;2022-07-10T09:24:39;6.60;;;4.30;;
23684;SDS011;12020;51.384;6.908;2022-07-10T09:27:07;5.90;;;5.20;;
23684;SDS011;12020;51.384;6.908;2022-07-10T09:29:45;6.85;;;4.80;;
23684;SDS011;12020;51.384;6.908;2022-07-10T09:32:12;10.27;;;5.68;;
23684;SDS011;12020;51.384;6.908;2022-07-10T09:35:01;9.77;;;6.50;;
23684;SDS011;12020;51.384;6.908;2022-07-10T09:37:45;7.13;;;6.40;;
23684;SDS011;12020;51.384;6.908;2022-07-10T09:42:55;8.40;;;7.50;;
23684;SDS011;12020;51.384;6.908;2022-07-10T09:45:22;8.15;;;7.35;;
23684;SDS011;12020;51.384;6.908;2022-07-10T09:47:55;9.95;;;8.00;;
23684;SDS011;12020;51.384;6.908;2022-07-10T09:53:05;9.35;;;8.38;;
23684;SDS011;12020;51.384;6.908;2022-07-10T09:58:17;8.93;;;7.75;;
23684;SDS011;12020;51.384;6.908;2022-07-10T10:00:47;9.60;;;8.43;;
23684;SDS011;12020;51.384;6.908;2022-07-10T10:03:20;6.53;;;5.82;;
23684;SDS011;12020;51.384;6.908;2022-07-10T10:05:54;7.43;;;6.10;;
23684;SDS011;12020;51.384;6.908;2022-07-10T10:11:07;8.48;;;5.22;;
23684;SDS011;12020;51.384;6.908;2022-07-10T10:13:38;8.70;;;4.80;;
23684;SDS011;12020;51.384;6.908;2022-07-10T10:16:04;7.05;;;4.45;;
23684;SDS011;12020;51.384;6.908;2022-07-10T10:18:34;5.97;;;4.13;;
23684;SDS011;12020;51.384;6.908;2022-07-10T10:21:23;6.20;;;3.70;;
23684;SDS011;12020;51.384;6.908;2022-07-10T10:23:51;4.60;;;3.10;;
23684;SDS011;12020;51.384;6.908;2022-07-10T10:26:27;6.37;;;3.30;;
23684;SDS011;12020;51.384;6.908;2022-07-10T10:28:54;5.70;;;3.50;;
23684;SDS011;12020;51.384;6.908;2022-07-10T10:31:28;3.92;;;2.60;;
23684;SDS011;12020;51.384;6.908;2022-07-10T10:33:58;5.65;;;2.40;;
23684;SDS011;12020;51.384;6.908;2022-07-10T10:39:16;15.13;;;10.43;;
23684;SDS011;12020;51.384;6.908;2022-07-10T10:41:50;46.83;;;22.17;;
23684;SDS011;12020;51.384;6.908;2022-07-10T10:44:24;22.92;;;11.23;;
23684;SDS011;12020;51.384;6.908;2022-07-10T10:46:58;7.30;;;4.10;;
23684;SDS011;12020;51.384;6.908;2022-07-10T10:49:49;8.63;;;4.23;;
23684;SDS011;12020;51.384;6.908;2022-07-10T10:52:22;10.50;;;5.93;;
23684;SDS011;12020;51.384;6.908;2022-07-10T11:00:06;4.50;;;2.00;;
23684;SDS011;12020;51.384;6.908;2022-07-10T11:02:34;2.40;;;1.80;;
23684;SDS011;12020;51.384;6.908;2022-07-10T11:07:57;3.10;;;2.65;;
23684;SDS011;12020;51.384;6.908;2022-07-10T11:13:08;4.43;;;3.40;;
23684;SDS011;12020;51.384;6.908;2022-07-10T11:15:39;4.78;;;4.25;;
23684;SDS011;12020;51.384;6.908;2022-07-10T11:18:18;4.30;;;3.60;;
23684;SDS011;12020;51.384;6.908;2022-07-10T11:20:54;5.05;;;4.47;;
23684;SDS011;12020;51.384;6.908;2022-07-10T11:26:11;5.53;;;4.10;;
23684;SDS011;12020;51.384;6.908;2022-07-10T11:28:51;4.65;;;4.25;;
23684;SDS011;12020;51.384;6.908;2022-07-10T11:31:24;5.43;;;4.90;;
23684;SDS011;12020;51.384;6.908;2022-07-10T11:33:54;5.28;;;4.78;;
23684;SDS011;12020;51.384;6.908;2022-07-10T11:36:24;5.93;;;5.35;;
23684;SDS011;12020;51.384;6.908;2022-07-10T11:39:05;5.85;;;4.97;;
23684;SDS011;12020;51.384;6.908;2022-07-10T11:42:53;7.63;;;6.03;;
23684;SDS011;12020;51.384;6.908;2022-07-10T11:45:23;7.68;;;6.97;;
23684;SDS011;12020;51.384;6.908;2022-07-10T11:47:58;7.72;;;6.07;;
23684;SDS011;12020;51.384;6.908;2022-07-10T11:50:24;7.32;;;6.68;;
23684;SDS011;12020;51.384;6.908;2022-07-10T11:52:53;7.32;;;6.70;;
23684;SDS011;12020;51.384;6.908;2022-07-10T11:55:20;7.00;;;6.40;;
23684;SDS011;12020;51.384;6.908;2022-07-10T11:57:47;6.85;;;6.03;;
23684;SDS011;12020;51.384;6.908;2022-07-10T12:00:29;3.95;;;3.50;;
23684;SDS011;12020;51.384;6.908;2022-07-10T12:03:15;3.45;;;2.50;;
23684;SDS011;12020;51.384;6.908;2022-07-10T12:08:45;3.35;;;2.38;;
23684;SDS011;12020;51.384;6.908;2022-07-10T12:11:20;2.80;;;2.20;;
23684;SDS011;12020;51.384;6.908;2022-07-10T12:13:47;2.70;;;2.17;;
23684;SDS011;12020;51.384;6.908;2022-07-10T12:16:15;3.03;;;2.25;;
23684;SDS011;12020;51.384;6.908;2022-07-10T12:18:43;2.75;;;2.00;;
23684;SDS011;12020;51.384;6.908;2022-07-10T12:21:13;2.85;;;2.30;;
23684;SDS011;12020;51.384;6.908;2022-07-10T12:23:40;2.65;;;2.45;;
23684;SDS011;12020;51.384;6.908;2022-07-10T12:26:08;3.28;;;2.30;;
23684;SDS011;12020;51.384;6.908;2022-07-10T12:28:56;3.50;;;2.10;;
23684;SDS011;12020;51.384;6.908;2022-07-10T12:31:22;2.58;;;2.10;;
23684;SDS011;12020;51.384;6.908;2022-07-10T12:33:53;4.25;;;2.20;;
23684;SDS011;12020;51.384;6.908;2022-07-10T12:36:42;5.05;;;2.28;;
23684;SDS011;12020;51.384;6.908;2022-07-10T12:39:08;2.53;;;2.10;;
23684;SDS011;12020;51.384;6.908;2022-07-10T12:41:35;3.13;;;2.10;;
23684;SDS011;12020;51.384;6.908;2022-07-10T12:44:39;4.13;;;2.63;;
23684;SDS011;12020;51.384;6.908;2022-07-10T12:47:09;4.95;;;2.83;;
23684;SDS011;12020;51.384;6.908;2022-07-10T12:49:55;3.95;;;2.55;;
23684;SDS011;12020;51.384;6.908;2022-07-10T12:52:32;4.43;;;2.97;;
23684;SDS011;12020;51.384;6.908;2022-07-10T12:57:48;5.20;;;3.30;;
23684;SDS011;12020;51.384;6.908;2022-07-10T13:00:25;6.10;;;3.27;;
23684;SDS011;12020;51.384;6.908;2022-07-10T13:02:59;6.90;;;3.70;;
23684;SDS011;12020;51.384;6.908;2022-07-10T13:05:35;3.70;;;2.90;;
23684;SDS011;12020;51.384;6.908;2022-07-10T13:08:10;4.60;;;2.88;;
23684;SDS011;12020;51.384;6.908;2022-07-10T13:10:51;4.95;;;3.85;;
23684;SDS011;12020;51.384;6.908;2022-07-10T13:13:18;7.07;;;3.20;;
23684;SDS011;12020;51.384;6.908;2022-07-10T13:15:45;4.80;;;2.90;;
23684;SDS011;12020;51.384;6.908;2022-07-10T13:18:20;5.67;;;3.70;;
23684;SDS011;12020;51.384;6.908;2022-07-10T13:21:10;5.72;;;3.55;;
23684;SDS011;12020;51.384;6.908;2022-07-10T13:23:40;8.77;;;4.05;;
23684;SDS011;12020;51.384;6.908;2022-07-10T13:26:25;6.35;;;3.88;;
23684;SDS011;12020;51.384;6.908;2022-07-10T13:38:50;4.88;;;2.78;;
23684;SDS011;12020;51.384;6.908;2022-07-10T13:41:27;6.07;;;2.88;;
23684;SDS011;12020;51.384;6.908;2022-07-10T13:43:53;5.03;;;2.67;;
23684;SDS011;12020;51.384;6.908;2022-07-10T13:49:34;4.55;;;2.55;;
23684;SDS011;12020;51.384;6.908;2022-07-10T13:52:04;4.30;;;2.20;;
23684;SDS011;12020;51.384;6.908;2022-07-10T13:54:30;3.30;;;2.00;;
23684;SDS011;12020;51.384;6.908;2022-07-10T13:56:56;2.63;;;1.80;;
23684;SDS011;12020;51.384;6.908;2022-07-10T13:59:37;2.80;;;1.90;;
23684;SDS011;12020;51.384;6.908;2022-07-10T14:02:06;3.35;;;1.90;;
23684;SDS011;12020;51.384;6.908;2022-07-10T14:04:35;4.15;;;1.70;;
23684;SDS011;12020;51.384;6.908;2022-07-10T14:07:01;3.60;;;1.90;;
23684;SDS011;12020;51.384;6.908;2022-07-10T14:09:27;2.75;;;1.80;;
23684;SDS011;12020;51.384;6.908;2022-07-10T14:11:53;3.15;;;2.00;;
23684;SDS011;12020;51.384;6.908;2022-07-10T14:21:05;2.97;;;1.75;;
23684;SDS011;12020;51.384;6.908;2022-07-10T14:23:35;4.05;;;2.00;;
23684;SDS011;12020;51.384;6.908;2022-07-10T14:26:10;3.42;;;1.92;;
23684;SDS011;12020;51.384;6.908;2022-07-10T14:31:56;3.90;;;2.10;;
23684;SDS011;12020;51.384;6.908;2022-07-10T14:34:22;4.50;;;2.10;;
23684;SDS011;12020;51.384;6.908;2022-07-10T14:37:01;3.10;;;1.80;;
23684;SDS011;12020;51.384;6.908;2022-07-10T14:39:30;3.25;;;1.90;;
23684;SDS011;12020;51.384;6.908;2022-07-10T14:41:56;4.05;;;2.00;;
23684;SDS011;12020;51.384;6.908;2022-07-10T14:53:41;3.53;;;2.03;;
23684;SDS011;12020;51.384;6.908;2022-07-10T15:02:39;2.97;;;1.63;;
23684;SDS011;12020;51.384;6.908;2022-07-10T15:05:08;3.45;;;1.75;;
23684;SDS011;12020;51.384;6.908;2022-07-10T15:07:36;3.28;;;1.80;;
23684;SDS011;12020;51.384;6.908;2022-07-10T15:10:07;2.70;;;1.80;;
23684;SDS011;12020;51.384;6.908;2022-07-10T15:12:34;4.45;;;2.20;;
23684;SDS011;12020;51.384;6.908;2022-07-10T15:15:02;3.92;;;2.08;;
23684;SDS011;12020;51.384;6.908;2022-07-10T15:17:32;2.95;;;1.90;;
23684;SDS011;12020;51.384;6.908;2022-07-10T15:27:43;2.80;;;1.70;;
23684;SDS011;12020;51.384;6.908;2022-07-10T15:53:29;3.63;;;2.03;;
23684;SDS011;12020;51.384;6.908;2022-07-10T15:55:55;5.03;;;2.30;;
23684;SDS011;12020;51.384;6.908;2022-07-10T15:58:23;5.13;;;2.25;;
23684;SDS011;12020;51.384;6.908;2022-07-10T16:00:50;4.07;;;2.20;;
23684;SDS011;12020;51.384;6.908;2022-07-10T16:03:16;3.55;;;2.05;;
23684;SDS011;12020;51.384;6.908;2022-07-10T16:05:41;3.42;;;2.00;;
23684;SDS011;12020;51.384;6.908;2022-07-10T16:08:08;2.10;;;1.70;;
23684;SDS011;12020;51.384;6.908;2022-07-10T16:10:33;2.13;;;1.70;;
23684;SDS011;12020;51.384;6.908;2022-07-10T16:12:59;2.40;;;1.67;;
23684;SDS011;12020;51.384;6.908;2022-07-10T16:15:25;3.47;;;1.98;;
23684;SDS011;12020;51.384;6.908;2022-07-10T16:17:51;3.83;;;2.10;;
23684;SDS011;12020;51.384;6.908;2022-07-10T16:20:18;3.35;;;1.70;;
23684;SDS011;12020;51.384;6.908;2022-07-10T16:22:43;4.45;;;1.90;;
23684;SDS011;12020;51.384;6.908;2022-07-10T16:25:10;3.72;;;1.77;;
23684;SDS011;12020;51.384;6.908;2022-07-10T16:27:54;6.78;;;2.95;;
23684;SDS011;12020;51.384;6.908;2022-07-10T16:30:22;3.28;;;1.80;;
23684;SDS011;12020;51.384;6.908;2022-07-10T16:32:50;3.30;;;1.80;;
23684;SDS011;12020;51.384;6.908;2022-07-10T16:35:16;3.77;;;1.80;;
23684;SDS011;12020;51.384;6.908;2022-07-10T16:37:42;2.42;;;1.70;;
23684;SDS011;12020;51.384;6.908;2022-07-10T16:40:10;3.13;;;1.90;;
23684;SDS011;12020;51.384;6.908;2022-07-10T16:42:39;3.15;;;1.98;;
23684;SDS011;12020;51.384;6.908;2022-07-10T16:45:05;3.53;;;1.60;;
23684;SDS011;12020;51.384;6.908;2022-07-10T16:47:34;3.50;;;1.70;;
23684;SDS011;12020;51.384;6.908;2022-07-10T16:50:05;4.55;;;1.70;;
23684;SDS011;12020;51.384;6.908;2022-07-10T16:52:31;3.22;;;1.80;;
23684;SDS011;12020;51.384;6.908;2022-07-10T16:54:57;3.88;;;1.70;;
23684;SDS011;12020;51.384;6.908;2022-07-10T16:57:25;3.63;;;1.60;;
23684;SDS011;12020;51.384;6.908;2022-07-10T16:59:54;2.72;;;1.70;;
23684;SDS011;12020;51.384;6.908;2022-07-10T17:02:21;4.10;;;1.60;;
23684;SDS011;12020;51.384;6.908;2022-07-10T17:04:57;2.60;;;1.50;;
23684;SDS011;12020;51.384;6.908;2022-07-10T17:07:26;4.90;;;1.60;;
23684;SDS011;12020;51.384;6.908;2022-07-10T17:09:53;3.03;;;1.50;;
23684;SDS011;12020;51.384;6.908;2022-07-10T17:12:19;2.08;;;1.35;;
23684;SDS011;12020;51.384;6.908;2022-07-10T17:14:45;2.65;;;1.40;;
23684;SDS011;12020;51.384;6.908;2022-07-10T17:17:11;3.25;;;1.50;;